createdAt,value
2023-05-19T00:01:44.120Z,17.20
2023-05-19T00:04:12.675Z,17.00
2023-05-19T00:06:41.665Z,16.80
2023-05-19T00:09:09.701Z,16.90
2023-05-19T00:11:37.627Z,16.30
2023-05-19T00:14:08.741Z,15.80
2023-05-19T00:16:36.429Z,17.10
2023-05-19T00:19:04.191Z,15.80
2023-05-19T00:21:31.545Z,16.30
2023-05-19T00:23:58.674Z,16.30
2023-05-19T00:26:27.403Z,17.30
2023-05-19T00:28:56.553Z,15.80
2023-05-19T00:31:23.649Z,15.70
2023-05-19T00:33:50.721Z,16.60
2023-05-19T00:36:17.731Z,16.20
2023-05-19T00:38:44.745Z,16.60
2023-05-19T00:41:12.537Z,15.60
2023-05-19T00:43:39.625Z,15.10
2023-05-19T00:46:07.693Z,16.90
2023-05-19T00:48:35.186Z,15.90
2023-05-19T00:51:04.906Z,15.80
2023-05-19T00:53:35.324Z,15.40
2023-05-19T00:56:02.473Z,16.30
2023-05-19T00:58:30.514Z,17.70
2023-05-19T01:01:03.697Z,15.80
2023-05-19T01:03:35.766Z,17.30
2023-05-19T01:06:07.522Z,15.20
2023-05-19T01:08:38.261Z,15.50
2023-05-19T01:11:06.932Z,16.70
2023-05-19T01:13:34.919Z,16.10
2023-05-19T01:16:01.940Z,16.70
2023-05-19T01:18:56.511Z,18.20
2023-05-19T01:21:45.411Z,16.80
2023-05-19T01:24:45.579Z,16.50
2023-05-19T01:27:38.282Z,16.80
2023-05-19T01:30:22.513Z,15.80
2023-05-19T01:32:49.595Z,15.20
2023-05-19T01:35:16.751Z,15.20
2023-05-19T01:37:45.491Z,15.90
2023-05-19T01:40:13.029Z,16.50
2023-05-19T01:42:40.217Z,16.50
2023-05-19T01:45:10.585Z,16.90
2023-05-19T01:47:43.922Z,16.90
2023-05-19T01:50:11.507Z,16.10
2023-05-19T01:52:38.697Z,16.70
2023-05-19T01:55:06.414Z,16.40
2023-05-19T01:57:39.537Z,14.90
2023-05-19T02:00:16.853Z,16.20
2023-05-19T02:03:13.996Z,16.20
2023-05-19T02:05:48.261Z,16.80
2023-05-19T02:08:20.804Z,14.50
2023-05-19T02:10:52.291Z,15.20
2023-05-19T02:13:21.563Z,15.20
2023-05-19T02:15:48.818Z,17.00
2023-05-19T02:18:18.076Z,16.60
2023-05-19T02:20:49.962Z,15.10
2023-05-19T02:23:17.571Z,15.50
2023-05-19T02:25:44.683Z,15.50
2023-05-19T02:28:11.900Z,14.90
2023-05-19T02:30:38.984Z,15.80
2023-05-19T02:33:06.776Z,15.10
2023-05-19T02:35:34.131Z,14.90
2023-05-19T02:38:01.320Z,14.50
2023-05-19T02:40:28.572Z,14.10
2023-05-19T02:42:55.634Z,14.20
2023-05-19T02:45:22.956Z,14.80
2023-05-19T02:47:50.034Z,15.40
2023-05-19T02:50:17.302Z,15.60
2023-05-19T02:52:44.362Z,15.40
2023-05-19T02:55:17.125Z,16.10
2023-05-19T02:57:44.291Z,14.30
2023-05-19T03:00:12.129Z,15.70
2023-05-19T03:02:40.008Z,15.60
2023-05-19T03:05:08.714Z,14.10
2023-05-19T03:07:36.390Z,14.10
2023-05-19T03:10:06.941Z,14.60
2023-05-19T03:12:34.144Z,15.20
2023-05-19T03:15:01.192Z,15.80
2023-05-19T03:17:33.947Z,15.30
2023-05-19T03:20:01.692Z,15.30
2023-05-19T03:22:28.787Z,14.40
2023-05-19T03:24:56.092Z,13.60
2023-05-19T03:27:23.251Z,15.60
2023-05-19T03:29:50.942Z,15.80
2023-05-19T03:32:18.077Z,15.20
2023-05-19T03:34:46.154Z,15.60
2023-05-19T03:37:13.377Z,15.50
2023-05-19T03:39:40.710Z,14.60
2023-05-19T03:42:07.984Z,14.50
2023-05-19T03:44:35.508Z,14.10
2023-05-19T03:47:02.583Z,15.80
2023-05-19T03:49:54.722Z,15.30
2023-05-19T03:52:51.035Z,15.00
2023-05-19T03:55:30.087Z,15.00
2023-05-19T03:57:57.470Z,15.30
2023-05-19T04:00:24.683Z,15.60
2023-05-19T04:02:52.038Z,16.20
2023-05-19T04:05:19.280Z,16.20
2023-05-19T04:07:46.965Z,16.50
2023-05-19T04:10:14.038Z,15.30
2023-05-19T04:12:41.115Z,15.20
2023-05-19T04:15:11.563Z,15.00
2023-05-19T04:17:38.688Z,15.20
2023-05-19T04:20:06.800Z,14.00
2023-05-19T04:22:33.820Z,14.30
2023-05-19T04:25:01.102Z,13.40
2023-05-19T04:27:30.195Z,13.60
2023-05-19T04:29:58.329Z,14.40
2023-05-19T04:32:25.947Z,15.70
2023-05-19T04:34:53.520Z,14.60
2023-05-19T04:37:24.367Z,15.60
2023-05-19T04:39:52.457Z,15.70
2023-05-19T04:42:19.901Z,14.30
2023-05-19T04:44:49.484Z,15.00
2023-05-19T04:47:16.781Z,15.00
2023-05-19T04:49:44.468Z,14.10
2023-05-19T04:52:11.894Z,13.70
2023-05-19T04:54:40.028Z,14.80
2023-05-19T04:57:07.386Z,14.20
2023-05-19T04:59:37.152Z,14.10
2023-05-19T05:02:06.023Z,14.00
2023-05-19T05:04:33.741Z,13.30
2023-05-19T05:07:01.508Z,13.80
2023-05-19T05:09:29.101Z,14.50
2023-05-19T05:11:57.728Z,13.90
2023-05-19T05:14:25.676Z,13.40
2023-05-19T05:16:54.119Z,14.40
2023-05-19T05:19:23.979Z,13.90
2023-05-19T05:21:52.314Z,13.70
2023-05-19T05:24:20.476Z,14.50
2023-05-19T05:26:51.894Z,13.80
2023-05-19T05:29:19.898Z,14.60
2023-05-19T05:31:46.953Z,14.50
2023-05-19T05:34:14.102Z,13.80
2023-05-19T05:36:41.466Z,13.40
2023-05-19T05:39:09.419Z,13.00
2023-05-19T05:41:36.792Z,14.30
2023-05-19T05:44:10.724Z,14.40
2023-05-19T05:46:39.305Z,13.50
2023-05-19T05:49:07.078Z,14.50
2023-05-19T05:51:34.865Z,14.10
2023-05-19T05:54:02.415Z,12.50
2023-05-19T05:56:37.113Z,12.10
2023-05-19T05:59:06.012Z,12.60
2023-05-19T06:01:35.496Z,12.60
2023-05-19T06:04:03.431Z,11.90
2023-05-19T06:06:31.444Z,12.00
2023-05-19T06:08:59.555Z,10.70
2023-05-19T06:11:28.872Z,12.00
2023-05-19T06:13:57.352Z,11.60
2023-05-19T06:16:51.118Z,11.80
2023-05-19T06:19:20.163Z,10.90
2023-05-19T06:21:48.525Z,9.40
2023-05-19T06:24:16.681Z,8.90
2023-05-19T06:26:45.382Z,9.30
2023-05-19T06:29:12.579Z,9.90
2023-05-19T06:31:40.040Z,8.90
2023-05-19T06:34:12.807Z,9.70
2023-05-19T06:36:41.677Z,8.70
2023-05-19T06:39:09.156Z,8.50
2023-05-19T06:41:36.471Z,9.20
2023-05-19T06:44:04.429Z,9.00
2023-05-19T06:46:33.706Z,8.60
2023-05-19T06:49:01.423Z,7.90
2023-05-19T06:51:32.414Z,8.20
2023-05-19T06:54:00.365Z,8.30
2023-05-19T06:56:28.368Z,7.40
2023-05-19T06:58:56.361Z,8.10
2023-05-19T07:01:28.119Z,8.50
2023-05-19T07:03:55.683Z,10.30
2023-05-19T07:06:23.136Z,9.30
2023-05-19T07:08:50.980Z,7.40
2023-05-19T07:11:19.222Z,7.60
2023-05-19T07:13:47.726Z,8.40
2023-05-19T07:16:18.213Z,7.80
2023-05-19T07:18:45.405Z,7.30
2023-05-19T07:21:12.451Z,7.80
2023-05-19T07:23:39.664Z,7.70
2023-05-19T07:26:06.705Z,8.00
2023-05-19T07:28:34.637Z,8.10
2023-05-19T07:31:01.667Z,7.80
2023-05-19T07:33:28.863Z,7.20
2023-05-19T07:35:56.361Z,7.60
2023-05-19T07:38:23.487Z,8.20
2023-05-19T07:40:50.602Z,8.10
2023-05-19T07:43:17.717Z,7.10
2023-05-19T07:45:44.822Z,7.50
2023-05-19T07:48:12.008Z,7.20
2023-05-19T07:50:39.229Z,7.40
2023-05-19T07:53:06.382Z,6.90
2023-05-19T07:55:33.541Z,7.60
2023-05-19T07:58:00.957Z,7.20
2023-05-19T08:00:28.506Z,7.40
2023-05-19T08:02:57.297Z,8.50
2023-05-19T08:05:26.140Z,8.10
2023-05-19T08:07:53.353Z,7.60
2023-05-19T08:10:20.437Z,7.90
2023-05-19T08:12:47.520Z,8.00
2023-05-19T08:15:14.634Z,8.60
2023-05-19T08:17:41.772Z,8.00
2023-05-19T08:20:10.396Z,7.50
2023-05-19T08:22:37.624Z,7.50
2023-05-19T08:25:06.480Z,8.00
2023-05-19T08:27:33.772Z,8.30
2023-05-19T08:30:00.968Z,7.90
2023-05-19T08:32:28.164Z,9.70
2023-05-19T08:34:55.354Z,8.10
2023-05-19T08:37:22.927Z,9.10
2023-05-19T08:39:51.773Z,8.20
2023-05-19T08:42:19.334Z,8.60
2023-05-19T08:44:46.480Z,9.00
2023-05-19T08:47:14.061Z,9.30
2023-05-19T08:49:45.523Z,9.40
2023-05-19T08:52:22.286Z,9.70
2023-05-19T08:55:09.790Z,9.50
2023-05-19T08:57:37.167Z,9.70
2023-05-19T09:00:12.384Z,9.60
2023-05-19T09:02:50.433Z,9.90
2023-05-19T09:05:27.051Z,10.60
2023-05-19T09:07:54.377Z,9.50
2023-05-19T09:10:21.558Z,10.50
2023-05-19T09:12:49.832Z,9.70
2023-05-19T09:15:18.983Z,10.80
2023-05-19T09:17:48.280Z,11.60
2023-05-19T09:20:17.052Z,15.10
2023-05-19T09:22:47.671Z,15.10
2023-05-19T09:27:46.982Z,11.10
2023-05-19T09:30:15.297Z,8.40
2023-05-19T09:32:43.270Z,8.20
2023-05-19T09:35:11.805Z,8.80
2023-05-19T09:37:42.225Z,12.60
2023-05-19T09:40:11.360Z,9.70
2023-05-19T09:45:09.902Z,7.70
2023-05-19T09:47:38.493Z,7.00
2023-05-19T09:50:08.179Z,7.20
2023-05-19T09:52:36.438Z,7.50
2023-05-19T09:55:05.730Z,7.00
2023-05-19T09:57:40.279Z,7.10
2023-05-19T10:00:20.968Z,7.20
2023-05-19T10:05:17.725Z,7.90
2023-05-19T10:07:45.943Z,7.50
2023-05-19T10:10:14.165Z,7.50
2023-05-19T10:12:41.446Z,6.60
2023-05-19T10:15:19.232Z,7.10
2023-05-19T10:17:47.833Z,7.60
2023-05-19T10:20:16.202Z,5.50
2023-05-19T10:22:44.337Z,6.70
2023-05-19T10:25:13.158Z,6.50
2023-05-19T10:27:45.268Z,5.70
2023-05-19T10:30:16.337Z,6.60
2023-05-19T10:32:44.410Z,5.70
2023-05-19T10:35:42.405Z,6.00
2023-05-19T10:38:43.689Z,6.60
2023-05-19T10:41:13.444Z,5.80
2023-05-19T10:43:59.379Z,6.00
2023-05-19T10:46:27.248Z,6.10
2023-05-19T10:48:54.414Z,5.30
2023-05-19T10:51:21.639Z,6.00
2023-05-19T10:53:50.245Z,5.50
2023-05-19T10:56:36.154Z,5.70
2023-05-19T10:59:05.079Z,6.00
2023-05-19T11:01:36.282Z,6.10
2023-05-19T11:04:07.861Z,5.70
2023-05-19T11:06:38.314Z,7.40
2023-05-19T11:09:16.369Z,5.60
2023-05-19T11:11:48.294Z,6.20
2023-05-19T11:14:20.382Z,5.90
2023-05-19T11:16:48.569Z,5.80
2023-05-19T11:19:20.846Z,5.50
2023-05-19T11:21:53.009Z,5.40
2023-05-19T11:24:44.752Z,6.20
2023-05-19T11:27:21.672Z,5.70
2023-05-19T11:29:49.090Z,5.60
2023-05-19T11:32:16.412Z,5.60
2023-05-19T11:34:44.815Z,5.80
2023-05-19T11:37:12.143Z,5.90
2023-05-19T11:39:39.852Z,5.80
2023-05-19T11:42:08.863Z,6.40
2023-05-19T11:44:37.231Z,6.00
2023-05-19T11:47:05.372Z,5.60
2023-05-19T11:49:32.736Z,5.50
2023-05-19T11:52:03.453Z,5.90
2023-05-19T11:54:37.234Z,5.80
2023-05-19T11:57:04.764Z,6.00
2023-05-19T11:59:34.223Z,5.80
2023-05-19T12:02:17.383Z,6.70
2023-05-19T12:04:44.603Z,6.10
2023-05-19T12:07:13.197Z,5.90
2023-05-19T12:09:40.598Z,5.40
2023-05-19T12:12:08.099Z,5.80
2023-05-19T12:14:36.029Z,5.90
2023-05-19T12:17:17.168Z,5.70
2023-05-19T12:19:44.734Z,6.00
2023-05-19T12:22:11.848Z,4.50
2023-05-19T12:24:38.979Z,4.60
2023-05-19T12:27:26.829Z,4.60
2023-05-19T12:29:55.067Z,5.20
2023-05-19T12:32:25.871Z,4.00
2023-05-19T12:34:53.586Z,3.40
2023-05-19T12:37:21.322Z,3.70
2023-05-19T12:39:51.993Z,3.70
2023-05-19T12:42:20.098Z,3.70
2023-05-19T12:44:48.588Z,4.00
2023-05-19T12:47:16.220Z,3.60
2023-05-19T12:49:56.716Z,4.30
2023-05-19T12:52:24.216Z,4.10
2023-05-19T12:55:07.962Z,3.90
2023-05-19T12:57:37.623Z,5.00
2023-05-19T13:00:14.076Z,4.80
2023-05-19T13:03:00.631Z,4.80
2023-05-19T13:05:30.941Z,4.60
2023-05-19T13:08:00.726Z,4.20
2023-05-19T13:13:00.311Z,5.00
2023-05-19T13:15:34.674Z,4.20
2023-05-19T13:18:03.581Z,4.40
2023-05-19T13:20:31.125Z,4.20
2023-05-19T13:22:58.557Z,4.20
2023-05-19T13:25:26.548Z,3.40
2023-05-19T13:27:54.583Z,2.80
2023-05-19T13:30:22.140Z,3.00
2023-05-19T13:32:49.268Z,2.60
2023-05-19T13:35:16.380Z,2.40
2023-05-19T13:37:43.656Z,2.90
2023-05-19T13:40:11.133Z,3.10
2023-05-19T13:42:38.276Z,3.10
2023-05-19T13:45:05.689Z,3.80
2023-05-19T13:47:32.957Z,3.40
2023-05-19T13:50:00.126Z,3.10
2023-05-19T13:52:29.069Z,2.60
2023-05-19T13:54:57.662Z,2.90
2023-05-19T13:57:25.687Z,2.60
2023-05-19T14:00:01.972Z,2.50
2023-05-19T14:02:39.700Z,2.90
2023-05-19T14:05:07.639Z,3.20
2023-05-19T14:07:35.395Z,3.20
2023-05-19T14:10:04.067Z,2.80
2023-05-19T14:12:43.162Z,3.30
2023-05-19T14:15:14.743Z,3.20
2023-05-19T14:17:42.919Z,3.10
2023-05-19T14:20:10.693Z,4.00
2023-05-19T14:22:38.545Z,2.80
2023-05-19T14:25:06.559Z,3.00
2023-05-19T14:27:33.609Z,2.60
2023-05-19T14:30:00.851Z,2.80
2023-05-19T14:32:30.268Z,2.80
2023-05-19T14:34:57.767Z,3.30
2023-05-19T14:37:27.700Z,3.40
2023-05-19T14:39:55.123Z,3.50
2023-05-19T14:42:22.136Z,3.80
2023-05-19T14:44:49.227Z,3.70
2023-05-19T14:47:16.421Z,4.50
2023-05-19T14:49:43.572Z,4.40
2023-05-19T14:52:10.696Z,4.70
2023-05-19T14:54:37.817Z,3.80
2023-05-19T14:57:07.378Z,3.80
2023-05-19T14:59:38.754Z,3.60
2023-05-19T15:02:06.202Z,3.90
2023-05-19T15:04:33.289Z,5.50
2023-05-19T15:09:30.799Z,4.30
2023-05-19T15:11:58.255Z,4.60
2023-05-19T15:14:26.214Z,4.40
2023-05-19T15:16:54.882Z,4.10
2023-05-19T15:19:22.051Z,4.20
2023-05-19T15:21:50.810Z,4.30
2023-05-19T15:24:18.047Z,4.60
2023-05-19T15:26:45.513Z,5.20
2023-05-19T15:29:12.539Z,4.10
2023-05-19T15:31:39.737Z,5.40
2023-05-19T15:34:06.836Z,4.10
2023-05-19T15:36:33.903Z,5.70
2023-05-19T15:39:01.013Z,4.10
2023-05-19T15:41:28.085Z,4.80
2023-05-19T15:43:55.351Z,4.00
2023-05-19T15:46:23.033Z,4.50
2023-05-19T15:48:50.169Z,6.10
2023-05-19T15:51:17.275Z,5.50
2023-05-19T15:53:44.402Z,5.40
2023-05-19T15:56:11.608Z,5.40
2023-05-19T15:58:38.643Z,5.60
2023-05-19T16:01:05.966Z,4.50
2023-05-19T16:03:33.619Z,5.30
2023-05-19T16:06:01.228Z,4.90
2023-05-19T16:08:28.843Z,5.00
2023-05-19T16:10:56.462Z,5.90
2023-05-19T16:13:23.980Z,5.00
2023-05-19T16:15:51.071Z,5.50
2023-05-19T16:18:18.466Z,6.60
2023-05-19T16:20:55.352Z,6.70
2023-05-19T16:23:27.597Z,5.80
2023-05-19T16:25:55.073Z,6.90
2023-05-19T16:28:24.470Z,5.90
2023-05-19T16:30:51.944Z,5.80
2023-05-19T16:33:19.029Z,6.90
2023-05-19T16:35:46.188Z,6.10
2023-05-19T16:38:13.267Z,7.10
2023-05-19T16:40:40.386Z,6.90
2023-05-19T16:43:07.458Z,7.00
2023-05-19T16:45:34.621Z,8.20
2023-05-19T16:48:01.957Z,8.10
2023-05-19T16:50:29.211Z,6.00
2023-05-19T16:52:56.309Z,5.70
2023-05-19T16:55:25.481Z,5.50
2023-05-19T16:57:52.817Z,5.30
2023-05-19T17:00:20.137Z,5.80
2023-05-19T17:02:47.339Z,6.00
2023-05-19T17:05:14.506Z,2.70
2023-05-19T17:07:41.761Z,2.40
2023-05-19T17:10:09.477Z,2.10
2023-05-19T17:12:37.077Z,2.20
2023-05-19T17:15:04.597Z,2.40
2023-05-19T17:17:31.723Z,4.50
2023-05-19T17:19:58.849Z,3.00
2023-05-19T17:22:26.658Z,2.90
2023-05-19T17:24:54.891Z,3.30
2023-05-19T17:27:22.800Z,3.60
2023-05-19T17:29:49.878Z,2.60
2023-05-19T17:32:18.135Z,2.80
2023-05-19T17:34:45.264Z,2.70
2023-05-19T17:37:12.501Z,2.60
2023-05-19T17:39:39.783Z,3.00
2023-05-19T17:42:07.169Z,7.00
2023-05-19T17:44:34.328Z,10.70
2023-05-19T17:47:02.595Z,4.00
2023-05-19T17:49:30.699Z,3.40
2023-05-19T17:51:58.568Z,4.30
2023-05-19T17:54:26.587Z,4.10
2023-05-19T17:56:53.763Z,4.50
2023-05-19T17:59:21.404Z,4.30
2023-05-19T18:01:49.364Z,4.40
2023-05-19T18:04:20.115Z,4.80
2023-05-19T18:06:47.629Z,4.40
2023-05-19T18:09:15.279Z,5.00
2023-05-19T18:11:42.609Z,5.50
2023-05-19T18:14:10.077Z,5.30
2023-05-19T18:16:38.233Z,4.80
2023-05-19T18:19:06.949Z,4.80
2023-05-19T18:21:34.565Z,5.70
2023-05-19T18:24:04.458Z,6.20
2023-05-19T18:26:31.863Z,5.30
2023-05-19T18:29:02.773Z,5.60
2023-05-19T18:31:29.938Z,5.70
2023-05-19T18:33:57.158Z,6.10
2023-05-19T18:36:26.846Z,6.70
2023-05-19T18:38:55.344Z,6.40
2023-05-19T18:41:22.478Z,6.10
2023-05-19T18:43:49.737Z,7.00
2023-05-19T18:46:20.484Z,6.70
2023-05-19T18:48:49.949Z,7.20
2023-05-19T18:51:18.885Z,6.80
2023-05-19T18:53:48.811Z,7.20
2023-05-19T18:56:23.267Z,6.50
2023-05-19T18:58:50.365Z,7.00
2023-05-19T19:01:17.521Z,6.10
2023-05-19T19:03:46.928Z,6.90
2023-05-19T19:06:14.166Z,8.20
2023-05-19T19:08:41.478Z,7.00
2023-05-19T19:11:11.381Z,7.20
2023-05-19T19:13:38.615Z,7.40
2023-05-19T19:16:07.035Z,6.40
2023-05-19T19:18:37.409Z,6.90
2023-05-19T19:21:05.964Z,6.70
2023-05-19T19:23:33.506Z,6.90
2023-05-19T19:26:00.960Z,13.80
2023-05-19T19:28:28.654Z,7.10
2023-05-19T19:30:55.770Z,12.00
2023-05-19T19:33:22.992Z,7.20
2023-05-19T19:35:50.060Z,7.10
2023-05-19T19:38:17.278Z,6.20
2023-05-19T19:40:44.601Z,6.60
2023-05-19T19:43:12.232Z,6.20
2023-05-19T19:45:39.793Z,6.30
2023-05-19T19:48:07.470Z,6.00
2023-05-19T19:50:34.749Z,7.20
2023-05-19T19:53:02.176Z,5.70
2023-05-19T19:55:30.837Z,6.50
2023-05-19T19:57:58.036Z,6.20
2023-05-19T20:00:25.725Z,5.60
2023-05-19T20:03:04.612Z,6.40
2023-05-19T20:05:32.921Z,6.40
2023-05-19T20:08:00.103Z,6.80
2023-05-19T20:10:27.191Z,6.60
2023-05-19T20:12:54.323Z,6.90
2023-05-19T20:15:21.632Z,6.60
2023-05-19T20:17:49.883Z,6.10
2023-05-19T20:20:17.043Z,6.80
2023-05-19T20:22:46.061Z,7.10
2023-05-19T20:25:13.118Z,6.70
2023-05-19T20:27:40.692Z,7.20
2023-05-19T20:30:08.348Z,7.20
2023-05-19T20:32:35.835Z,7.80
2023-05-19T20:35:02.932Z,7.70
2023-05-19T20:37:29.972Z,6.90
2023-05-19T20:39:56.961Z,6.40
2023-05-19T20:42:24.507Z,7.50
2023-05-19T20:44:52.189Z,7.30
2023-05-19T20:47:19.443Z,7.90
2023-05-19T20:49:46.651Z,7.40
2023-05-19T20:52:14.877Z,7.90
2023-05-19T20:54:42.221Z,7.30
2023-05-19T20:57:09.607Z,7.00
2023-05-19T20:59:36.713Z,7.10
2023-05-19T21:02:04.498Z,7.20
2023-05-19T21:04:33.064Z,6.70
2023-05-19T21:07:00.742Z,6.50
2023-05-19T21:09:27.878Z,7.10
2023-05-19T21:11:54.893Z,8.10
2023-05-19T21:14:22.088Z,6.80
2023-05-19T21:16:50.037Z,6.50
2023-05-19T21:19:17.212Z,6.30
2023-05-19T21:21:45.091Z,6.80
2023-05-19T21:24:13.085Z,6.80
2023-05-19T21:26:42.034Z,6.70
2023-05-19T21:29:10.238Z,6.70
2023-05-19T21:31:37.363Z,7.90
2023-05-19T21:34:06.190Z,6.90
2023-05-19T21:39:03.791Z,7.30
2023-05-19T21:41:32.543Z,7.60
2023-05-19T21:43:59.638Z,7.50
2023-05-19T21:46:29.164Z,7.80
2023-05-19T21:48:56.413Z,7.30
2023-05-19T21:51:23.442Z,6.80
2023-05-19T21:53:50.727Z,7.40
2023-05-19T21:56:17.792Z,6.30
2023-05-19T21:58:45.167Z,6.80
2023-05-19T22:01:13.393Z,7.20
2023-05-19T22:03:40.451Z,7.10
2023-05-19T22:06:07.744Z,7.50
2023-05-19T22:08:34.899Z,7.30
2023-05-19T22:11:02.189Z,6.90
2023-05-19T22:13:29.488Z,7.10
2023-05-19T22:15:57.800Z,6.60
2023-05-19T22:18:25.305Z,6.60
2023-05-19T22:20:52.609Z,6.70
2023-05-19T22:23:19.664Z,6.40
2023-05-19T22:25:46.677Z,6.80
2023-05-19T22:28:13.809Z,6.50
2023-05-19T22:30:42.601Z,6.70
2023-05-19T22:33:11.436Z,6.90
2023-05-19T22:35:38.962Z,7.60
2023-05-19T22:38:07.526Z,7.40
2023-05-19T22:40:38.085Z,6.80
2023-05-19T22:43:05.848Z,7.30
2023-05-19T22:45:34.547Z,6.70
2023-05-19T22:48:02.338Z,6.60
2023-05-19T22:50:29.408Z,5.90
2023-05-19T22:52:56.651Z,6.10
2023-05-19T22:55:23.930Z,6.40
2023-05-19T22:57:51.304Z,5.80
2023-05-19T23:00:21.389Z,5.20
2023-05-19T23:02:48.451Z,5.60
2023-05-19T23:05:15.822Z,5.90
2023-05-19T23:07:42.933Z,5.50
2023-05-19T23:10:10.389Z,5.20
2023-05-19T23:12:37.419Z,6.00
2023-05-19T23:15:04.918Z,5.60
2023-05-19T23:17:32.104Z,6.00
2023-05-19T23:19:59.157Z,6.40
2023-05-19T23:22:26.202Z,5.70
2023-05-19T23:24:53.236Z,5.10
2023-05-19T23:27:20.236Z,5.70
2023-05-19T23:29:49.633Z,6.00
2023-05-19T23:32:16.812Z,5.20
2023-05-19T23:34:43.861Z,5.40
2023-05-19T23:37:11.765Z,5.30
2023-05-19T23:39:38.834Z,5.90
2023-05-19T23:42:06.209Z,5.80
2023-05-19T23:44:33.244Z,5.20
2023-05-19T23:47:00.428Z,5.60
2023-05-19T23:49:27.556Z,5.30
2023-05-19T23:51:54.785Z,5.20
2023-05-19T23:54:21.871Z,5.20
2023-05-19T23:56:48.899Z,5.20
2023-05-19T23:59:15.923Z,5.60
